sensor_id;sensor_type;location;lat;lon;timestamp;P1;durP1;ratioP1;P2;durP2;ratioP2
41709;SDS011;59402;48.396;-4.472;2023-05-27T00:01:27;32.97;;;7.85;;
41709;SDS011;59402;48.396;-4.472;2023-05-27T00:03:52;31.88;;;8.02;;
41709;SDS011;59402;48.396;-4.472;2023-05-27T00:06:18;40.35;;;9.93;;
41709;SDS011;59402;48.396;-4.472;2023-05-27T00:08:44;32.50;;;8.75;;
41709;SDS011;59402;48.396;-4.472;2023-05-27T00:11:10;38.35;;;9.20;;
41709;SDS011;59402;48.396;-4.472;2023-05-27T00:13:36;33.08;;;8.70;;
41709;SDS011;59402;48.396;-4.472;2023-05-27T00:16:01;33.45;;;9.80;;
41709;SDS011;59402;48.396;-4.472;2023-05-27T00:18:27;36.38;;;8.48;;
41709;SDS011;59402;48.396;-4.472;2023-05-27T00:20:53;34.72;;;8.77;;
41709;SDS011;59402;48.396;-4.472;2023-05-27T00:23:19;32.20;;;9.20;;
41709;SDS011;59402;48.396;-4.472;2023-05-27T00:25:45;38.92;;;9.57;;
41709;SDS011;59402;48.396;-4.472;2023-05-27T00:28:12;32.55;;;9.48;;
41709;SDS011;59402;48.396;-4.472;2023-05-27T00:30:38;39.08;;;8.77;;
41709;SDS011;59402;48.396;-4.472;2023-05-27T00:33:03;35.00;;;9.30;;
41709;SDS011;59402;48.396;-4.472;2023-05-27T00:35:29;32.67;;;8.20;;
41709;SDS011;59402;48.396;-4.472;2023-05-27T00:37:55;37.72;;;8.63;;
41709;SDS011;59402;48.396;-4.472;2023-05-27T00:40:21;36.97;;;9.65;;
41709;SDS011;59402;48.396;-4.472;2023-05-27T00:42:47;41.35;;;9.75;;
41709;SDS011;59402;48.396;-4.472;2023-05-27T00:45:13;46.00;;;9.32;;
41709;SDS011;59402;48.396;-4.472;2023-05-27T00:47:39;35.75;;;8.93;;
41709;SDS011;59402;48.396;-4.472;2023-05-27T00:50:05;40.22;;;9.45;;
41709;SDS011;59402;48.396;-4.472;2023-05-27T00:54:58;39.50;;;9.27;;
41709;SDS011;59402;48.396;-4.472;2023-05-27T00:57:24;39.42;;;10.20;;
41709;SDS011;59402;48.396;-4.472;2023-05-27T00:59:51;33.40;;;8.05;;
41709;SDS011;59402;48.396;-4.472;2023-05-27T01:02:17;33.17;;;9.52;;
41709;SDS011;59402;48.396;-4.472;2023-05-27T01:04:42;37.47;;;9.75;;
41709;SDS011;59402;48.396;-4.472;2023-05-27T01:07:34;41.83;;;8.95;;
41709;SDS011;59402;48.396;-4.472;2023-05-27T01:13:32;34.05;;;9.68;;
41709;SDS011;59402;48.396;-4.472;2023-05-27T01:16:08;40.92;;;10.85;;
41709;SDS011;59402;48.396;-4.472;2023-05-27T01:18:42;43.60;;;9.75;;
41709;SDS011;59402;48.396;-4.472;2023-05-27T01:21:12;36.53;;;10.95;;
41709;SDS011;59402;48.396;-4.472;2023-05-27T01:23:47;37.10;;;9.68;;
41709;SDS011;59402;48.396;-4.472;2023-05-27T01:26:14;42.30;;;10.93;;
41709;SDS011;59402;48.396;-4.472;2023-05-27T01:28:41;43.85;;;11.52;;
41709;SDS011;59402;48.396;-4.472;2023-05-27T01:31:15;46.15;;;11.30;;
41709;SDS011;59402;48.396;-4.472;2023-05-27T01:33:46;40.65;;;10.27;;
41709;SDS011;59402;48.396;-4.472;2023-05-27T01:36:17;39.67;;;11.10;;
41709;SDS011;59402;48.396;-4.472;2023-05-27T01:38:46;37.72;;;10.73;;
41709;SDS011;59402;48.396;-4.472;2023-05-27T01:41:13;32.78;;;10.55;;
41709;SDS011;59402;48.396;-4.472;2023-05-27T01:43:40;39.40;;;11.07;;
41709;SDS011;59402;48.396;-4.472;2023-05-27T01:46:07;52.53;;;12.05;;
41709;SDS011;59402;48.396;-4.472;2023-05-27T01:48:33;39.33;;;11.02;;
41709;SDS011;59402;48.396;-4.472;2023-05-27T01:51:00;39.00;;;11.00;;
41709;SDS011;59402;48.396;-4.472;2023-05-27T01:53:26;43.17;;;11.05;;
41709;SDS011;59402;48.396;-4.472;2023-05-27T01:55:51;44.38;;;12.00;;
41709;SDS011;59402;48.396;-4.472;2023-05-27T01:58:17;37.47;;;11.40;;
41709;SDS011;59402;48.396;-4.472;2023-05-27T02:00:43;42.75;;;12.02;;
41709;SDS011;59402;48.396;-4.472;2023-05-27T02:03:09;42.45;;;12.18;;
41709;SDS011;59402;48.396;-4.472;2023-05-27T02:05:36;46.33;;;12.27;;
41709;SDS011;59402;48.396;-4.472;2023-05-27T02:08:02;47.00;;;11.80;;
41709;SDS011;59402;48.396;-4.472;2023-05-27T02:10:28;44.05;;;12.10;;
41709;SDS011;59402;48.396;-4.472;2023-05-27T02:12:53;41.88;;;12.27;;
41709;SDS011;59402;48.396;-4.472;2023-05-27T02:15:19;41.78;;;11.32;;
41709;SDS011;59402;48.396;-4.472;2023-05-27T02:17:49;44.88;;;12.35;;
41709;SDS011;59402;48.396;-4.472;2023-05-27T02:20:24;40.55;;;11.98;;
41709;SDS011;59402;48.396;-4.472;2023-05-27T02:22:50;36.65;;;13.50;;
41709;SDS011;59402;48.396;-4.472;2023-05-27T02:25:16;40.65;;;12.52;;
41709;SDS011;59402;48.396;-4.472;2023-05-27T02:27:42;49.65;;;12.95;;
41709;SDS011;59402;48.396;-4.472;2023-05-27T02:30:12;49.25;;;13.85;;
41709;SDS011;59402;48.396;-4.472;2023-05-27T02:35:06;42.30;;;12.57;;
41709;SDS011;59402;48.396;-4.472;2023-05-27T02:37:32;43.88;;;13.77;;
41709;SDS011;59402;48.396;-4.472;2023-05-27T02:39:58;44.92;;;14.10;;
41709;SDS011;59402;48.396;-4.472;2023-05-27T02:42:24;45.03;;;13.48;;
41709;SDS011;59402;48.396;-4.472;2023-05-27T02:44:50;47.90;;;14.90;;
41709;SDS011;59402;48.396;-4.472;2023-05-27T02:47:16;37.63;;;12.50;;
41709;SDS011;59402;48.396;-4.472;2023-05-27T02:49:41;54.70;;;13.98;;
41709;SDS011;59402;48.396;-4.472;2023-05-27T02:52:07;52.28;;;13.50;;
41709;SDS011;59402;48.396;-4.472;2023-05-27T02:54:33;48.53;;;13.25;;
41709;SDS011;59402;48.396;-4.472;2023-05-27T02:56:58;40.20;;;13.52;;
41709;SDS011;59402;48.396;-4.472;2023-05-27T02:59:24;41.65;;;13.10;;
41709;SDS011;59402;48.396;-4.472;2023-05-27T03:01:50;48.92;;;14.07;;
41709;SDS011;59402;48.396;-4.472;2023-05-27T03:04:16;47.10;;;13.65;;
41709;SDS011;59402;48.396;-4.472;2023-05-27T03:06:42;43.65;;;13.30;;
41709;SDS011;59402;48.396;-4.472;2023-05-27T03:09:08;46.67;;;13.88;;
41709;SDS011;59402;48.396;-4.472;2023-05-27T03:11:35;43.70;;;13.88;;
41709;SDS011;59402;48.396;-4.472;2023-05-27T03:14:01;52.67;;;15.23;;
41709;SDS011;59402;48.396;-4.472;2023-05-27T03:16:26;53.10;;;15.40;;
41709;SDS011;59402;48.396;-4.472;2023-05-27T03:18:52;47.35;;;13.77;;
41709;SDS011;59402;48.396;-4.472;2023-05-27T03:21:18;47.25;;;14.48;;
41709;SDS011;59402;48.396;-4.472;2023-05-27T03:23:44;41.30;;;13.88;;
41709;SDS011;59402;48.396;-4.472;2023-05-27T03:26:10;46.88;;;14.65;;
41709;SDS011;59402;48.396;-4.472;2023-05-27T03:28:37;44.25;;;14.48;;
41709;SDS011;59402;48.396;-4.472;2023-05-27T03:31:03;42.10;;;14.40;;
41709;SDS011;59402;48.396;-4.472;2023-05-27T03:33:43;48.33;;;15.43;;
41709;SDS011;59402;48.396;-4.472;2023-05-27T03:36:09;50.28;;;14.98;;
41709;SDS011;59402;48.396;-4.472;2023-05-27T03:38:36;56.10;;;16.37;;
41709;SDS011;59402;48.396;-4.472;2023-05-27T03:41:02;51.95;;;15.60;;
41709;SDS011;59402;48.396;-4.472;2023-05-27T03:43:27;49.67;;;14.80;;
41709;SDS011;59402;48.396;-4.472;2023-05-27T03:45:53;47.58;;;14.85;;
41709;SDS011;59402;48.396;-4.472;2023-05-27T03:48:19;54.72;;;15.63;;
41709;SDS011;59402;48.396;-4.472;2023-05-27T03:50:45;54.80;;;14.98;;
41709;SDS011;59402;48.396;-4.472;2023-05-27T03:53:10;46.10;;;16.50;;
41709;SDS011;59402;48.396;-4.472;2023-05-27T03:55:36;48.42;;;15.05;;
41709;SDS011;59402;48.396;-4.472;2023-05-27T03:58:02;58.58;;;15.35;;
41709;SDS011;59402;48.396;-4.472;2023-05-27T04:00:31;42.75;;;15.00;;
41709;SDS011;59402;48.396;-4.472;2023-05-27T04:02:58;50.95;;;15.55;;
41709;SDS011;59402;48.396;-4.472;2023-05-27T04:05:26;50.65;;;14.80;;
41709;SDS011;59402;48.396;-4.472;2023-05-27T04:07:52;48.30;;;15.57;;
41709;SDS011;59402;48.396;-4.472;2023-05-27T04:10:17;44.17;;;15.27;;
41709;SDS011;59402;48.396;-4.472;2023-05-27T04:12:43;51.45;;;16.17;;
41709;SDS011;59402;48.396;-4.472;2023-05-27T04:15:09;48.67;;;14.80;;
41709;SDS011;59402;48.396;-4.472;2023-05-27T04:17:35;56.17;;;15.95;;
41709;SDS011;59402;48.396;-4.472;2023-05-27T04:20:01;46.78;;;15.23;;
41709;SDS011;59402;48.396;-4.472;2023-05-27T04:22:36;46.55;;;15.38;;
41709;SDS011;59402;48.396;-4.472;2023-05-27T04:25:02;46.33;;;14.85;;
41709;SDS011;59402;48.396;-4.472;2023-05-27T04:27:33;51.97;;;16.10;;
41709;SDS011;59402;48.396;-4.472;2023-05-27T04:30:00;48.33;;;14.35;;
41709;SDS011;59402;48.396;-4.472;2023-05-27T04:32:26;45.63;;;15.05;;
41709;SDS011;59402;48.396;-4.472;2023-05-27T04:35:03;56.30;;;16.15;;
41709;SDS011;59402;48.396;-4.472;2023-05-27T04:37:33;52.28;;;16.00;;
41709;SDS011;59402;48.396;-4.472;2023-05-27T04:39:58;51.97;;;15.30;;
41709;SDS011;59402;48.396;-4.472;2023-05-27T04:42:24;49.65;;;15.15;;
41709;SDS011;59402;48.396;-4.472;2023-05-27T04:44:51;47.38;;;16.45;;
41709;SDS011;59402;48.396;-4.472;2023-05-27T04:47:17;51.40;;;16.20;;
41709;SDS011;59402;48.396;-4.472;2023-05-27T04:49:43;51.20;;;15.23;;
41709;SDS011;59402;48.396;-4.472;2023-05-27T04:52:11;44.63;;;14.55;;
41709;SDS011;59402;48.396;-4.472;2023-05-27T04:54:37;54.78;;;15.60;;
41709;SDS011;59402;48.396;-4.472;2023-05-27T04:57:10;42.80;;;14.02;;
41709;SDS011;59402;48.396;-4.472;2023-05-27T04:59:36;44.92;;;15.20;;
41709;SDS011;59402;48.396;-4.472;2023-05-27T05:02:24;43.30;;;15.02;;
41709;SDS011;59402;48.396;-4.472;2023-05-27T05:05:05;49.33;;;14.77;;
41709;SDS011;59402;48.396;-4.472;2023-05-27T05:07:33;47.95;;;15.07;;
41709;SDS011;59402;48.396;-4.472;2023-05-27T05:10:01;46.92;;;14.73;;
41709;SDS011;59402;48.396;-4.472;2023-05-27T05:12:33;55.05;;;15.07;;
41709;SDS011;59402;48.396;-4.472;2023-05-27T05:15:00;52.95;;;15.65;;
41709;SDS011;59402;48.396;-4.472;2023-05-27T05:17:26;41.00;;;14.27;;
41709;SDS011;59402;48.396;-4.472;2023-05-27T05:19:52;42.00;;;13.45;;
41709;SDS011;59402;48.396;-4.472;2023-05-27T05:22:18;47.22;;;14.35;;
41709;SDS011;59402;48.396;-4.472;2023-05-27T05:24:47;42.67;;;14.10;;
41709;SDS011;59402;48.396;-4.472;2023-05-27T05:29:41;43.60;;;14.27;;
41709;SDS011;59402;48.396;-4.472;2023-05-27T05:32:08;49.30;;;15.25;;
41709;SDS011;59402;48.396;-4.472;2023-05-27T05:34:37;48.40;;;14.90;;
41709;SDS011;59402;48.396;-4.472;2023-05-27T05:37:04;47.10;;;13.90;;
41709;SDS011;59402;48.396;-4.472;2023-05-27T05:39:32;39.88;;;14.27;;
41709;SDS011;59402;48.396;-4.472;2023-05-27T05:41:58;42.22;;;14.60;;
41709;SDS011;59402;48.396;-4.472;2023-05-27T05:44:25;43.08;;;14.27;;
41709;SDS011;59402;48.396;-4.472;2023-05-27T05:46:52;47.95;;;13.80;;
41709;SDS011;59402;48.396;-4.472;2023-05-27T05:49:19;43.60;;;13.77;;
41709;SDS011;59402;48.396;-4.472;2023-05-27T05:51:45;37.60;;;13.15;;
41709;SDS011;59402;48.396;-4.472;2023-05-27T05:54:11;45.45;;;13.43;;
41709;SDS011;59402;48.396;-4.472;2023-05-27T05:56:42;46.85;;;15.50;;
41709;SDS011;59402;48.396;-4.472;2023-05-27T05:59:08;45.15;;;14.70;;
41709;SDS011;59402;48.396;-4.472;2023-05-27T06:01:34;41.25;;;13.73;;
41709;SDS011;59402;48.396;-4.472;2023-05-27T06:04:00;40.97;;;13.15;;
41709;SDS011;59402;48.396;-4.472;2023-05-27T06:06:33;45.03;;;13.52;;
41709;SDS011;59402;48.396;-4.472;2023-05-27T06:09:19;37.28;;;13.27;;
41709;SDS011;59402;48.396;-4.472;2023-05-27T06:11:46;39.10;;;13.48;;
41709;SDS011;59402;48.396;-4.472;2023-05-27T06:14:12;42.08;;;12.88;;
41709;SDS011;59402;48.396;-4.472;2023-05-27T06:16:38;46.40;;;14.02;;
41709;SDS011;59402;48.396;-4.472;2023-05-27T06:19:05;37.00;;;12.80;;
41709;SDS011;59402;48.396;-4.472;2023-05-27T06:21:31;37.40;;;12.57;;
41709;SDS011;59402;48.396;-4.472;2023-05-27T06:26:49;44.45;;;12.73;;
41709;SDS011;59402;48.396;-4.472;2023-05-27T06:29:15;39.03;;;12.38;;
41709;SDS011;59402;48.396;-4.472;2023-05-27T06:31:41;38.53;;;13.40;;
41709;SDS011;59402;48.396;-4.472;2023-05-27T06:34:07;45.33;;;12.88;;
41709;SDS011;59402;48.396;-4.472;2023-05-27T06:36:33;36.85;;;12.32;;
41709;SDS011;59402;48.396;-4.472;2023-05-27T06:38:59;37.55;;;12.77;;
41709;SDS011;59402;48.396;-4.472;2023-05-27T06:41:25;38.15;;;11.98;;
41709;SDS011;59402;48.396;-4.472;2023-05-27T06:44:14;33.53;;;11.35;;
41709;SDS011;59402;48.396;-4.472;2023-05-27T06:46:54;38.22;;;11.40;;
41709;SDS011;59402;48.396;-4.472;2023-05-27T06:49:27;40.83;;;12.30;;
41709;SDS011;59402;48.396;-4.472;2023-05-27T06:51:53;39.13;;;11.70;;
41709;SDS011;59402;48.396;-4.472;2023-05-27T06:54:19;42.85;;;13.40;;
41709;SDS011;59402;48.396;-4.472;2023-05-27T06:56:45;41.47;;;12.32;;
41709;SDS011;59402;48.396;-4.472;2023-05-27T06:59:40;33.33;;;11.77;;
41709;SDS011;59402;48.396;-4.472;2023-05-27T07:02:06;32.83;;;10.95;;
41709;SDS011;59402;48.396;-4.472;2023-05-27T07:04:32;33.33;;;10.20;;
41709;SDS011;59402;48.396;-4.472;2023-05-27T07:07:01;37.90;;;11.45;;
41709;SDS011;59402;48.396;-4.472;2023-05-27T07:09:27;43.87;;;12.20;;
41709;SDS011;59402;48.396;-4.472;2023-05-27T07:11:53;33.53;;;10.25;;
41709;SDS011;59402;48.396;-4.472;2023-05-27T07:14:37;31.27;;;10.00;;
41709;SDS011;59402;48.396;-4.472;2023-05-27T07:17:04;34.63;;;9.80;;
41709;SDS011;59402;48.396;-4.472;2023-05-27T07:19:30;34.83;;;10.88;;
41709;SDS011;59402;48.396;-4.472;2023-05-27T07:22:00;38.25;;;10.57;;
41709;SDS011;59402;48.396;-4.472;2023-05-27T07:24:27;35.80;;;9.98;;
41709;SDS011;59402;48.396;-4.472;2023-05-27T07:26:55;31.50;;;10.40;;
41709;SDS011;59402;48.396;-4.472;2023-05-27T07:29:22;33.83;;;10.20;;
41709;SDS011;59402;48.396;-4.472;2023-05-27T07:31:50;34.83;;;11.43;;
41709;SDS011;59402;48.396;-4.472;2023-05-27T07:36:46;31.50;;;9.80;;
41709;SDS011;59402;48.396;-4.472;2023-05-27T07:39:12;35.20;;;10.07;;
41709;SDS011;59402;48.396;-4.472;2023-05-27T07:41:38;34.47;;;10.18;;
41709;SDS011;59402;48.396;-4.472;2023-05-27T07:44:04;32.58;;;10.73;;
41709;SDS011;59402;48.396;-4.472;2023-05-27T07:46:30;36.17;;;10.05;;
41709;SDS011;59402;48.396;-4.472;2023-05-27T07:48:56;32.40;;;10.60;;
41709;SDS011;59402;48.396;-4.472;2023-05-27T07:51:23;34.83;;;10.32;;
41709;SDS011;59402;48.396;-4.472;2023-05-27T07:53:49;38.85;;;11.15;;
41709;SDS011;59402;48.396;-4.472;2023-05-27T07:56:16;30.80;;;9.65;;
41709;SDS011;59402;48.396;-4.472;2023-05-27T07:58:42;37.83;;;11.27;;
41709;SDS011;59402;48.396;-4.472;2023-05-27T08:01:10;33.30;;;11.10;;
41709;SDS011;59402;48.396;-4.472;2023-05-27T08:03:38;34.10;;;9.90;;
41709;SDS011;59402;48.396;-4.472;2023-05-27T08:06:18;34.75;;;10.93;;
41709;SDS011;59402;48.396;-4.472;2023-05-27T08:08:59;31.65;;;10.15;;
41709;SDS011;59402;48.396;-4.472;2023-05-27T08:11:43;36.25;;;10.25;;
41709;SDS011;59402;48.396;-4.472;2023-05-27T08:14:28;36.10;;;10.68;;
41709;SDS011;59402;48.396;-4.472;2023-05-27T08:17:32;35.17;;;9.77;;
41709;SDS011;59402;48.396;-4.472;2023-05-27T08:20:33;30.88;;;8.90;;
41709;SDS011;59402;48.396;-4.472;2023-05-27T08:23:18;29.05;;;9.10;;
41709;SDS011;59402;48.396;-4.472;2023-05-27T08:25:55;28.88;;;10.05;;
41709;SDS011;59402;48.396;-4.472;2023-05-27T08:28:50;32.88;;;10.10;;
41709;SDS011;59402;48.396;-4.472;2023-05-27T08:31:34;30.35;;;9.27;;
41709;SDS011;59402;48.396;-4.472;2023-05-27T08:34:01;35.38;;;10.15;;
41709;SDS011;59402;48.396;-4.472;2023-05-27T08:36:26;31.00;;;10.00;;
41709;SDS011;59402;48.396;-4.472;2023-05-27T08:38:53;31.25;;;9.77;;
41709;SDS011;59402;48.396;-4.472;2023-05-27T08:41:23;29.73;;;9.10;;
41709;SDS011;59402;48.396;-4.472;2023-05-27T08:43:51;33.20;;;9.43;;
41709;SDS011;59402;48.396;-4.472;2023-05-27T08:46:17;36.15;;;10.05;;
41709;SDS011;59402;48.396;-4.472;2023-05-27T08:48:44;34.47;;;8.88;;
41709;SDS011;59402;48.396;-4.472;2023-05-27T08:51:10;26.02;;;7.68;;
41709;SDS011;59402;48.396;-4.472;2023-05-27T08:53:38;25.83;;;8.13;;
41709;SDS011;59402;48.396;-4.472;2023-05-27T08:56:04;27.10;;;8.45;;
41709;SDS011;59402;48.396;-4.472;2023-05-27T08:58:32;29.02;;;8.07;;
41709;SDS011;59402;48.396;-4.472;2023-05-27T09:00:58;30.05;;;9.15;;
41709;SDS011;59402;48.396;-4.472;2023-05-27T09:03:24;27.90;;;9.07;;
41709;SDS011;59402;48.396;-4.472;2023-05-27T09:05:54;28.35;;;7.85;;
41709;SDS011;59402;48.396;-4.472;2023-05-27T09:08:20;28.98;;;8.85;;
41709;SDS011;59402;48.396;-4.472;2023-05-27T09:10:46;28.95;;;8.85;;
41709;SDS011;59402;48.396;-4.472;2023-05-27T09:13:12;35.75;;;8.60;;
41709;SDS011;59402;48.396;-4.472;2023-05-27T09:15:38;28.35;;;7.70;;
41709;SDS011;59402;48.396;-4.472;2023-05-27T09:20:31;23.77;;;8.23;;
41709;SDS011;59402;48.396;-4.472;2023-05-27T09:22:57;27.38;;;7.80;;
41709;SDS011;59402;48.396;-4.472;2023-05-27T09:25:25;25.10;;;7.78;;
41709;SDS011;59402;48.396;-4.472;2023-05-27T09:27:51;25.95;;;8.57;;
41709;SDS011;59402;48.396;-4.472;2023-05-27T09:30:18;29.85;;;8.20;;
41709;SDS011;59402;48.396;-4.472;2023-05-27T09:32:45;27.00;;;7.88;;
41709;SDS011;59402;48.396;-4.472;2023-05-27T09:35:11;29.08;;;8.23;;
41709;SDS011;59402;48.396;-4.472;2023-05-27T09:37:37;25.88;;;7.32;;
41709;SDS011;59402;48.396;-4.472;2023-05-27T09:40:07;27.92;;;7.47;;
41709;SDS011;59402;48.396;-4.472;2023-05-27T09:42:44;21.83;;;7.15;;
41709;SDS011;59402;48.396;-4.472;2023-05-27T09:45:14;27.38;;;7.88;;
41709;SDS011;59402;48.396;-4.472;2023-05-27T09:47:48;25.67;;;6.93;;
41709;SDS011;59402;48.396;-4.472;2023-05-27T09:50:14;27.48;;;7.85;;
41709;SDS011;59402;48.396;-4.472;2023-05-27T09:52:41;23.53;;;7.47;;
41709;SDS011;59402;48.396;-4.472;2023-05-27T09:55:09;24.38;;;7.75;;
41709;SDS011;59402;48.396;-4.472;2023-05-27T09:57:39;21.75;;;7.38;;
41709;SDS011;59402;48.396;-4.472;2023-05-27T10:00:09;29.98;;;7.20;;
41709;SDS011;59402;48.396;-4.472;2023-05-27T10:02:42;28.25;;;8.48;;
41709;SDS011;59402;48.396;-4.472;2023-05-27T10:05:11;27.08;;;7.30;;
41709;SDS011;59402;48.396;-4.472;2023-05-27T10:07:42;24.65;;;6.75;;
41709;SDS011;59402;48.396;-4.472;2023-05-27T10:10:09;19.90;;;6.38;;
41709;SDS011;59402;48.396;-4.472;2023-05-27T10:12:37;26.05;;;7.50;;
41709;SDS011;59402;48.396;-4.472;2023-05-27T10:15:04;22.65;;;7.47;;
41709;SDS011;59402;48.396;-4.472;2023-05-27T10:17:41;30.40;;;8.05;;
41709;SDS011;59402;48.396;-4.472;2023-05-27T10:20:33;28.00;;;7.45;;
41709;SDS011;59402;48.396;-4.472;2023-05-27T10:23:19;28.20;;;7.90;;
41709;SDS011;59402;48.396;-4.472;2023-05-27T10:25:52;25.80;;;7.28;;
41709;SDS011;59402;48.396;-4.472;2023-05-27T10:28:32;27.77;;;7.88;;
41709;SDS011;59402;48.396;-4.472;2023-05-27T10:31:07;25.92;;;7.57;;
41709;SDS011;59402;48.396;-4.472;2023-05-27T10:33:47;27.23;;;7.38;;
41709;SDS011;59402;48.396;-4.472;2023-05-27T10:36:22;26.65;;;7.85;;
41709;SDS011;59402;48.396;-4.472;2023-05-27T10:38:57;31.08;;;6.82;;
41709;SDS011;59402;48.396;-4.472;2023-05-27T10:41:25;26.08;;;7.28;;
41709;SDS011;59402;48.396;-4.472;2023-05-27T10:43:57;28.25;;;7.60;;
41709;SDS011;59402;48.396;-4.472;2023-05-27T10:46:24;36.95;;;8.75;;
41709;SDS011;59402;48.396;-4.472;2023-05-27T10:48:50;46.30;;;8.83;;
41709;SDS011;59402;48.396;-4.472;2023-05-27T10:51:16;42.72;;;8.07;;
41709;SDS011;59402;48.396;-4.472;2023-05-27T10:53:42;34.10;;;8.73;;
41709;SDS011;59402;48.396;-4.472;2023-05-27T10:56:08;30.27;;;8.18;;
41709;SDS011;59402;48.396;-4.472;2023-05-27T10:58:35;28.35;;;7.13;;
41709;SDS011;59402;48.396;-4.472;2023-05-27T11:01:10;27.20;;;7.05;;
41709;SDS011;59402;48.396;-4.472;2023-05-27T11:03:41;32.90;;;8.80;;
41709;SDS011;59402;48.396;-4.472;2023-05-27T11:06:08;26.65;;;8.07;;
41709;SDS011;59402;48.396;-4.472;2023-05-27T11:08:35;26.60;;;7.32;;
41709;SDS011;59402;48.396;-4.472;2023-05-27T11:11:06;29.15;;;8.02;;
41709;SDS011;59402;48.396;-4.472;2023-05-27T11:13:39;20.88;;;6.35;;
41709;SDS011;59402;48.396;-4.472;2023-05-27T11:16:09;27.92;;;7.03;;
41709;SDS011;59402;48.396;-4.472;2023-05-27T11:18:36;34.95;;;8.02;;
41709;SDS011;59402;48.396;-4.472;2023-05-27T11:21:12;27.80;;;7.43;;
41709;SDS011;59402;48.396;-4.472;2023-05-27T11:23:47;28.90;;;7.75;;
41709;SDS011;59402;48.396;-4.472;2023-05-27T11:28:47;26.23;;;7.55;;
41709;SDS011;59402;48.396;-4.472;2023-05-27T11:31:13;30.30;;;7.47;;
41709;SDS011;59402;48.396;-4.472;2023-05-27T11:33:44;31.77;;;8.20;;
41709;SDS011;59402;48.396;-4.472;2023-05-27T11:36:11;31.08;;;7.68;;
41709;SDS011;59402;48.396;-4.472;2023-05-27T11:41:21;36.80;;;7.88;;
41709;SDS011;59402;48.396;-4.472;2023-05-27T11:46:33;44.28;;;8.98;;
41709;SDS011;59402;48.396;-4.472;2023-05-27T11:49:03;34.72;;;7.97;;
41709;SDS011;59402;48.396;-4.472;2023-05-27T11:51:30;41.03;;;8.48;;
41709;SDS011;59402;48.396;-4.472;2023-05-27T11:53:58;29.75;;;8.10;;
41709;SDS011;59402;48.396;-4.472;2023-05-27T11:56:26;31.83;;;7.25;;
41709;SDS011;59402;48.396;-4.472;2023-05-27T11:58:53;31.55;;;8.15;;
41709;SDS011;59402;48.396;-4.472;2023-05-27T12:01:20;32.67;;;8.55;;
41709;SDS011;59402;48.396;-4.472;2023-05-27T12:03:46;27.88;;;7.82;;
41709;SDS011;59402;48.396;-4.472;2023-05-27T12:06:12;33.70;;;7.97;;
41709;SDS011;59402;48.396;-4.472;2023-05-27T12:08:38;24.75;;;7.88;;
41709;SDS011;59402;48.396;-4.472;2023-05-27T12:11:05;30.45;;;9.02;;
41709;SDS011;59402;48.396;-4.472;2023-05-27T12:13:31;32.28;;;8.02;;
41709;SDS011;59402;48.396;-4.472;2023-05-27T12:15:57;29.05;;;7.32;;
41709;SDS011;59402;48.396;-4.472;2023-05-27T12:18:23;26.98;;;7.68;;
41709;SDS011;59402;48.396;-4.472;2023-05-27T12:20:49;38.90;;;9.35;;
41709;SDS011;59402;48.396;-4.472;2023-05-27T12:23:15;35.67;;;9.95;;
41709;SDS011;59402;48.396;-4.472;2023-05-27T12:25:41;43.80;;;11.60;;
41709;SDS011;59402;48.396;-4.472;2023-05-27T12:28:07;49.42;;;10.75;;
41709;SDS011;59402;48.396;-4.472;2023-05-27T12:30:34;35.00;;;9.18;;
41709;SDS011;59402;48.396;-4.472;2023-05-27T12:33:03;46.20;;;10.20;;
41709;SDS011;59402;48.396;-4.472;2023-05-27T12:35:30;28.70;;;7.75;;
41709;SDS011;59402;48.396;-4.472;2023-05-27T12:37:56;25.42;;;7.07;;
41709;SDS011;59402;48.396;-4.472;2023-05-27T12:40:22;22.35;;;6.03;;
41709;SDS011;59402;48.396;-4.472;2023-05-27T12:42:49;27.13;;;6.93;;
41709;SDS011;59402;48.396;-4.472;2023-05-27T12:45:15;44.30;;;9.37;;
41709;SDS011;59402;48.396;-4.472;2023-05-27T12:47:40;30.13;;;8.07;;
41709;SDS011;59402;48.396;-4.472;2023-05-27T12:50:06;32.58;;;7.97;;
41709;SDS011;59402;48.396;-4.472;2023-05-27T12:52:32;22.07;;;6.73;;
41709;SDS011;59402;48.396;-4.472;2023-05-27T12:54:59;24.43;;;6.77;;
41709;SDS011;59402;48.396;-4.472;2023-05-27T12:57:25;26.50;;;7.32;;
41709;SDS011;59402;48.396;-4.472;2023-05-27T12:59:51;28.00;;;7.23;;
41709;SDS011;59402;48.396;-4.472;2023-05-27T13:02:17;31.25;;;7.60;;
41709;SDS011;59402;48.396;-4.472;2023-05-27T13:04:42;26.95;;;6.60;;
41709;SDS011;59402;48.396;-4.472;2023-05-27T13:07:09;21.70;;;6.93;;
41709;SDS011;59402;48.396;-4.472;2023-05-27T13:12:05;25.85;;;6.80;;
41709;SDS011;59402;48.396;-4.472;2023-05-27T13:14:31;24.80;;;6.47;;
41709;SDS011;59402;48.396;-4.472;2023-05-27T13:16:56;20.87;;;5.97;;
41709;SDS011;59402;48.396;-4.472;2023-05-27T13:19:22;23.33;;;6.37;;
41709;SDS011;59402;48.396;-4.472;2023-05-27T13:21:48;22.60;;;6.35;;
41709;SDS011;59402;48.396;-4.472;2023-05-27T13:24:14;24.10;;;7.20;;
41709;SDS011;59402;48.396;-4.472;2023-05-27T13:26:40;22.50;;;6.93;;
41709;SDS011;59402;48.396;-4.472;2023-05-27T13:29:06;23.47;;;6.67;;
41709;SDS011;59402;48.396;-4.472;2023-05-27T13:31:32;24.87;;;6.53;;
41709;SDS011;59402;48.396;-4.472;2023-05-27T13:33:57;26.90;;;7.23;;
41709;SDS011;59402;48.396;-4.472;2023-05-27T13:36:23;20.50;;;5.90;;
41709;SDS011;59402;48.396;-4.472;2023-05-27T13:38:49;30.37;;;6.93;;
41709;SDS011;59402;48.396;-4.472;2023-05-27T13:41:15;24.53;;;6.70;;
41709;SDS011;59402;48.396;-4.472;2023-05-27T13:43:40;24.07;;;6.70;;
41709;SDS011;59402;48.396;-4.472;2023-05-27T13:46:06;17.77;;;5.67;;
41709;SDS011;59402;48.396;-4.472;2023-05-27T13:48:32;22.83;;;5.97;;
41709;SDS011;59402;48.396;-4.472;2023-05-27T13:50:58;29.90;;;7.47;;
41709;SDS011;59402;48.396;-4.472;2023-05-27T13:53:24;29.40;;;6.53;;
41709;SDS011;59402;48.396;-4.472;2023-05-27T13:55:50;17.17;;;5.63;;
41709;SDS011;59402;48.396;-4.472;2023-05-27T13:58:16;21.10;;;5.80;;
41709;SDS011;59402;48.396;-4.472;2023-05-27T14:00:43;23.98;;;6.97;;
41709;SDS011;59402;48.396;-4.472;2023-05-27T14:03:09;26.80;;;6.32;;
41709;SDS011;59402;48.396;-4.472;2023-05-27T14:05:35;22.52;;;6.55;;
41709;SDS011;59402;48.396;-4.472;2023-05-27T14:08:01;20.63;;;5.75;;
41709;SDS011;59402;48.396;-4.472;2023-05-27T14:10:31;23.73;;;6.53;;
41709;SDS011;59402;48.396;-4.472;2023-05-27T14:12:58;21.02;;;6.20;;
41709;SDS011;59402;48.396;-4.472;2023-05-27T14:15:23;32.67;;;6.93;;
41709;SDS011;59402;48.396;-4.472;2023-05-27T14:17:53;19.85;;;5.70;;
41709;SDS011;59402;48.396;-4.472;2023-05-27T14:20:19;29.35;;;6.65;;
41709;SDS011;59402;48.396;-4.472;2023-05-27T14:22:46;23.05;;;6.03;;
41709;SDS011;59402;48.396;-4.472;2023-05-27T14:25:12;25.83;;;6.82;;
41709;SDS011;59402;48.396;-4.472;2023-05-27T14:27:37;22.50;;;6.53;;
41709;SDS011;59402;48.396;-4.472;2023-05-27T14:30:05;18.70;;;5.68;;
41709;SDS011;59402;48.396;-4.472;2023-05-27T14:32:31;28.73;;;6.57;;
41709;SDS011;59402;48.396;-4.472;2023-05-27T14:34:57;25.43;;;6.90;;
41709;SDS011;59402;48.396;-4.472;2023-05-27T14:37:22;23.90;;;7.03;;
41709;SDS011;59402;48.396;-4.472;2023-05-27T14:39:50;26.42;;;7.50;;
41709;SDS011;59402;48.396;-4.472;2023-05-27T14:42:16;24.80;;;7.50;;
41709;SDS011;59402;48.396;-4.472;2023-05-27T14:44:42;32.07;;;7.33;;
41709;SDS011;59402;48.396;-4.472;2023-05-27T14:47:08;22.80;;;6.65;;
41709;SDS011;59402;48.396;-4.472;2023-05-27T14:49:35;25.38;;;6.95;;
41709;SDS011;59402;48.396;-4.472;2023-05-27T14:52:01;27.57;;;7.43;;